Time;durP1;ratioP1;P1;durP2;ratioP2;P2;SDS_P1;SDS_P2;PMS_P1;PMS_P2;Temp;Humidity;BMP_temperature;BMP_pressure;BME280_temperature;BME280_humidity;BME280_pressure;Samples;Min_cycle;Max_cycle;Signal;HPM_P1;HPM_P2
2023/05/05 00:10:13;;;;;;;;;;;;;;;22.99;44.51;100781.78;41557019;28;19927;-75
2023/05/05 00:30:13;;;;;;;;;;;;;;;22.94;44.30;100784.78;41498422;28;20350;-74
2023/05/05 00:50:35;;;;;;;;;;;;;;;22.93;44.33;100775.16;41458538;28;19983;-75
2023/05/05 01:10:38;;;;;;;;;;;;;;;22.90;44.34;100774.56;41525013;28;19936;-73
2023/05/05 01:30:44;;;;;;;;;;;;;;;22.88;44.27;100768.59;41538544;28;19952;-74
2023/05/05 01:50:45;;;;;;;;;;;;;;;22.83;44.02;100759.22;41523365;28;19967;-74
2023/05/05 02:10:46;;;;;;;;;;;;;;;22.88;43.98;100750.94;41530513;28;19928;-73
2023/05/05 02:30:57;;;;;;;;;;;;;;;22.89;43.76;100751.75;41519834;28;19928;-74
2023/05/05 02:50:58;;;;;;;;;;;;;;;22.85;43.89;100759.09;41545914;28;19929;-74
2023/05/05 03:11:13;;;;;;;;;;;;;;;22.84;43.62;100752.97;41532184;28;20567;-73
2023/05/05 03:31:13;;;;;;;;;;;;;;;22.82;43.61;100756.69;41562134;28;20301;-72
2023/05/05 03:51:14;;;;;;;;;;;;;;;22.81;43.36;100758.50;41546337;28;19921;-72
2023/05/05 04:11:16;;;;;;;;;;;;;;;22.72;43.74;100767.13;41461711;28;19947;-75
2023/05/05 04:31:16;;;;;;;;;;;;;;;22.82;44.25;100773.38;41480831;28;19925;-75
2023/05/05 04:51:16;;;;;;;;;;;;;;;22.88;44.47;100795.00;41505986;28;19944;-74
2023/05/05 05:11:17;;;;;;;;;;;;;;;22.67;40.59;100803.63;41401929;28;20400;-75
2023/05/05 05:31:17;;;;;;;;;;;;;;;22.48;40.32;100809.47;41418837;28;19921;-76
2023/05/05 05:51:17;;;;;;;;;;;;;;;22.55;41.77;100827.34;41466628;28;19955;-75
2023/05/05 06:11:18;;;;;;;;;;;;;;;22.64;42.50;100830.25;41450491;28;19921;-79
2023/05/05 06:31:18;;;;;;;;;;;;;;;22.71;42.86;100815.63;41496062;28;20338;-74
2023/05/05 06:51:19;;;;;;;;;;;;;;;22.74;42.25;100811.88;41511906;28;19991;-78
2023/05/05 07:11:19;;;;;;;;;;;;;;;22.81;41.83;100808.69;41535286;28;19972;-80
2023/05/05 07:31:20;;;;;;;;;;;;;;;22.84;42.34;100797.84;41471796;28;19932;-80
2023/05/05 07:51:21;;;;;;;;;;;;;;;22.85;42.28;100802.19;41470514;28;20011;-80
2023/05/05 08:11:21;;;;;;;;;;;;;;;22.84;42.29;100807.59;41542353;28;19944;-84
2023/05/05 08:31:22;;;;;;;;;;;;;;;22.88;42.22;100795.00;41483915;28;19969;-83
2023/05/05 08:51:27;;;;;;;;;;;;;;;22.94;42.46;100792.69;41485382;28;19925;-83
2023/05/05 09:11:27;;;;;;;;;;;;;;;22.99;42.99;100781.78;41592154;28;19921;-80
2023/05/05 09:31:33;;;;;;;;;;;;;;;22.80;37.58;100764.75;41571813;28;19964;-80
2023/05/05 09:51:33;;;;;;;;;;;;;;;22.67;35.97;100740.28;41564932;28;19930;-80
2023/05/05 10:11:34;;;;;;;;;;;;;;;22.66;35.00;100730.66;41509763;28;19957;-79
2023/05/05 10:31:44;;;;;;;;;;;;;;;22.80;36.39;100727.78;41505160;28;20312;-79
2023/05/05 10:51:52;;;;;;;;;;;;;;;22.92;36.79;100701.34;41584787;28;19984;-79
2023/05/05 11:12:05;;;;;;;;;;;;;;;23.07;34.75;100679.00;41498799;28;19930;-79
2023/05/05 11:32:12;;;;;;;;;;;;;;;23.19;34.79;100669.25;41573464;28;20032;-80
2023/05/05 11:52:13;;;;;;;;;;;;;;;23.32;35.65;100632.94;41543257;28;20368;-79
2023/05/05 12:12:16;;;;;;;;;;;;;;;23.49;36.10;100609.56;41576174;28;19983;-81
2023/05/05 12:32:29;;;;;;;;;;;;;;;23.64;36.06;100599.50;41631903;28;20011;-81
2023/05/05 12:52:40;;;;;;;;;;;;;;;23.73;35.16;100587.28;41564106;28;19925;-79
2023/05/05 13:12:40;;;;;;;;;;;;;;;23.85;37.04;100551.03;41516285;28;19933;-79
2023/05/05 13:32:41;;;;;;;;;;;;;;;23.92;37.16;100542.47;41474701;28;19939;-77
2023/05/05 13:52:47;;;;;;;;;;;;;;;24.08;36.47;100504.09;41473909;28;19929;-75
2023/05/05 14:12:48;;;;;;;;;;;;;;;24.17;35.78;100500.66;41471488;28;19964;-74
2023/05/05 14:32:48;;;;;;;;;;;;;;;24.26;35.19;100491.88;41475910;28;19928;-75
2023/05/05 14:52:55;;;;;;;;;;;;;;;24.35;36.17;100478.81;41540310;28;19921;-75
2023/05/05 15:12:55;;;;;;;;;;;;;;;24.48;35.67;100474.09;41554645;28;19932;-73
2023/05/05 15:32:55;;;;;;;;;;;;;;;25.19;34.82;100477.41;41594949;28;20447;-72
2023/05/05 15:52:56;;;;;;;;;;;;;;;25.54;33.51;100458.19;41475096;28;20474;-74
2023/05/05 16:12:56;;;;;;;;;;;;;;;25.60;33.22;100455.94;41550987;28;20020;-76
2023/05/05 16:32:56;;;;;;;;;;;;;;;25.10;34.07;100445.47;41559008;28;19925;-76
2023/05/05 16:52:57;;;;;;;;;;;;;;;24.77;32.57;100442.34;41481067;28;20000;-74
2023/05/05 17:12:57;;;;;;;;;;;;;;;24.55;31.54;100447.91;41498739;28;19929;-74
2023/05/05 17:32:57;;;;;;;;;;;;;;;24.26;30.21;100444.25;41555974;28;19921;-74
2023/05/05 17:52:59;;;;;;;;;;;;;;;24.00;30.47;100448.38;41548006;28;19925;-74
2023/05/05 18:12:59;;;;;;;;;;;;;;;23.75;31.36;100461.09;41528665;28;20384;-73
2023/05/05 18:33:08;;;;;;;;;;;;;;;23.52;31.31;100474.50;41574161;28;19932;-76
2023/05/05 18:53:12;;;;;;;;;;;;;;;23.61;33.47;100483.47;41591208;28;19921;-77
2023/05/05 19:13:12;;;;;;;;;;;;;;;23.59;34.96;100501.25;41598769;28;19932;-77
2023/05/05 19:33:16;;;;;;;;;;;;;;;23.60;35.47;100492.34;41608265;28;20376;-73
2023/05/05 19:53:16;;;;;;;;;;;;;;;23.58;35.83;100494.28;41437846;28;19951;-75
2023/05/05 20:13:18;;;;;;;;;;;;;;;23.55;36.31;100500.69;41483840;28;19921;-75
2023/05/05 20:33:19;;;;;;;;;;;;;;;23.53;37.13;100492.03;41466704;28;19925;-74
2023/05/05 20:53:20;;;;;;;;;;;;;;;23.49;37.58;100498.56;41545729;28;19929;-74
2023/05/05 21:13:20;;;;;;;;;;;;;;;23.48;38.06;100484.50;41467892;28;20003;-74
2023/05/05 21:33:20;;;;;;;;;;;;;;;23.49;38.42;100472.13;41544470;28;20368;-75
2023/05/05 21:53:28;;;;;;;;;;;;;;;23.49;38.61;100466.84;41534954;28;20604;-76
2023/05/05 22:13:28;;;;;;;;;;;;;;;23.45;38.86;100454.88;41448039;28;21062;-75
2023/05/05 22:33:29;;;;;;;;;;;;;;;23.48;38.90;100460.72;41459212;28;19960;-75
2023/05/05 22:53:29;;;;;;;;;;;;;;;23.44;39.76;100477.81;41506799;28;20303;-75
2023/05/05 23:13:29;;;;;;;;;;;;;;;23.40;40.09;100467.63;41514057;28;19999;-75
2023/05/05 23:33:32;;;;;;;;;;;;;;;23.35;40.15;100460.09;41587224;28;19929;-73
2023/05/05 23:53:32;;;;;;;;;;;;;;;23.30;40.44;100468.44;41592290;28;19975;-75
